Pahoa, HI (96778)

7:18 PM HST on February 09, 2016 (GMT -1000)
Hawaiian Shores Rec. (Malolo St.) | | Change Station
CLOSE
Current Station
Personal Weather Station
Location: Pahoa, HI
Elevation: 217 ft
Nearby Weather Stations
Active Advisory: High Surf Advisory

Elev 217 ft 19.54 °N, 154.90 °W | Updated 60 seconds ago

Partly Cloudy
Partly Cloudy
68.0 °F
Feels Like 68.0 °F
N
0.0
Wind Variable Wind from SSW
Gusts 0.0 mph

Today
High -- | Low -- °F
--% Chance of Precip.
Yesterday
High -- | Low -- °F
Precip. -- in
Pressure 30.03 in
Visibility 10.0 miles
Clouds Few 5000 ft
Dew Point 52 °F
Humidity 57%
Rainfall 0.00 in
Snow Depth Not available.
6:51 AM 6:16 PM
Waxing Crescent, 4% visible
METAR PHTO 100453Z 00000KT 10SM FEW050 22/16 A3003 RMK AO2 SLP167 T02170161
Pressure 30.03 in
Visibility 10.0 miles
Clouds Few 5000 ft
Dew Point 52 °F
Humidity 57%
Rainfall 0.00 in
Snow Depth Not available.
6:51 AM 6:16 PM
Waxing Crescent, 4% visible
METAR PHTO 100453Z 00000KT 10SM FEW050 22/16 A3003 RMK AO2 SLP167 T02170161

10-Day Weather Forecast

Almanac

Astronomy

Feb. 09, 2016 Rise Set
Actual Time
Civil Twilight
Nautical Twilight
Astronomical Twilight
Moon
Length of Visible Light
Length of Day
Tomorrow will be .
, % of the Moon is Illuminated

Today's Extremes

State Highs State Lows

Community

WunderPhotos

Upload Photos

1,891,818 photos uploaded!

WunderBlog® & News

Nearby

Air Quality

  Air Quality AQ Index Pollutant
Not available.

Snow Depth

Station Depth Elevation

Earthquake Activity

City Distance Mag. Time & Date
Minimum magnitude displayed is 2.5.

Coastal Water Temperatures

Place Temperature

Stations

Nearby Weather Stations

Station Location Temp. Windchill Dew Point Humidity Wind Precip. Elev Updated Type
                   

Watches & Warnings

High Surf Advisory
Issued: 3:37 PM HST Feb. 9, 2016 – National Weather Service

... High surf advisory in effect from noon Wednesday to 6 PM HST
Thursday...

The National Weather Service in Honolulu has issued a high surf
advisory... which is in effect from noon Wednesday to 6 PM HST
Thursday.

* Surf... along north facing shores... surf will rise to 12 to 16 ft
Wednesday.

* Timing... noon Wednesday through 6 PM Thursday.

* Impacts... moderate... expect strong breaking waves... shore
break... and strong longshore and rip currents making swimming
difficult and dangerous.

Precautionary/preparedness actions...

Beachgoers... swimmers... and surfers should heed all advice given
by ocean safety officials and exercise caution. Know your
limits... when in doubt... do not go out.